Time;durP1;ratioP1;P1;durP2;ratioP2;P2;SDS_P1;SDS_P2;PMS_P1;PMS_P2;Temp;Humidity;BMP_temperature;BMP_pressure;BME280_temperature;BME280_humidity;BME280_pressure;Samples;Min_cycle;Max_cycle;Signal;HPM_P1;HPM_P2
2022/10/03 00:01:24;;;;;;;5.68;0.57;;;;;;;10.32;100.00;101939.19;6151324;29;20442;-75
2022/10/03 00:04:57;;;;;;;10.18;1.38;;;;;;;10.35;100.00;101942.53;6151467;29;20507;-75
2022/10/03 00:08:13;;;;;;;3.53;0.88;;;;;;;10.42;100.00;101940.59;6151539;29;20047;-75
2022/10/03 00:11:27;;;;;;;5.25;1.55;;;;;;;10.33;100.00;101954.88;6151289;29;20058;-75
2022/10/03 00:14:39;;;;;;;12.15;1.05;;;;;;;10.30;100.00;101952.34;6150917;29;20047;-77
2022/10/03 00:17:50;;;;;;;9.05;2.60;;;;;;;10.34;100.00;101959.22;6151575;29;20055;-76
2022/10/03 00:21:17;;;;;;;3.80;1.25;;;;;;;10.27;100.00;101967.38;6150637;29;20050;-75
2022/10/03 00:24:34;;;;;;;7.78;1.23;;;;;;;10.25;100.00;101967.41;6150889;29;20058;-75
2022/10/03 00:27:40;;;;;;;7.15;1.10;;;;;;;10.22;100.00;101980.63;6151191;29;20054;-75
2022/10/03 00:31:01;;;;;;;5.47;0.80;;;;;;;10.27;100.00;101973.47;6150784;29;20055;-75
2022/10/03 00:34:08;;;;;;;6.75;1.20;;;;;;;10.28;100.00;101976.97;6150685;29;20062;-76
2022/10/03 00:37:24;;;;;;;1.63;0.75;;;;;;;10.27;100.00;101975.25;6151032;29;20058;-75
2022/10/03 00:41:05;;;;;;;4.80;0.93;;;;;;;10.20;100.00;101979.78;6150541;29;20400;-75
2022/10/03 00:44:36;;;;;;;6.68;0.93;;;;;;;10.23;100.00;101987.59;6149138;28;20536;-75
2022/10/03 00:48:00;;;;;;;5.70;1.20;;;;;;;10.18;100.00;101989.50;6150728;29;20055;-75
2022/10/03 00:51:24;;;;;;;7.88;1.25;;;;;;;10.21;100.00;101986.75;6150175;29;20057;-75
2022/10/03 00:54:44;;;;;;;1.52;0.60;;;;;;;10.13;100.00;101983.53;6150370;29;20055;-75
2022/10/03 00:58:03;;;;;;;;;;;;;;;10.10;100.00;101987.13;6151049;29;20059;-75
2022/10/03 01:01:23;;;;;;;5.90;1.40;;;;;;;10.13;100.00;101988.78;6149216;29;20024;-76
2022/10/03 01:04:46;;;;;;;2.80;1.02;;;;;;;10.07;100.00;101989.81;6149962;29;20061;-75
2022/10/03 01:08:28;;;;;;;2.88;0.90;;;;;;;10.04;100.00;101996.97;6150174;29;20055;-75
2022/10/03 01:11:41;;;;;;;3.05;1.48;;;;;;;10.06;100.00;101992.50;6102284;29;20048;-74
2022/10/03 01:15:00;;;;;;;5.25;0.95;;;;;;;10.08;100.00;101998.56;6149728;29;20051;-74
2022/10/03 01:18:16;;;;;;;3.65;0.90;;;;;;;10.08;100.00;101998.56;6150148;29;20047;-77
2022/10/03 01:21:32;;;;;;;8.65;1.17;;;;;;;10.01;100.00;101989.16;6149578;29;20055;-77
2022/10/03 01:24:52;;;;;;;2.47;1.15;;;;;;;9.97;100.00;102005.94;6149732;29;20055;-77
2022/10/03 01:31:33;;;;;;;15.25;1.88;;;;;;;9.92;100.00;102006.06;6149444;29;20130;-77
2022/10/03 01:34:41;;;;;;;8.48;0.95;;;;;;;9.89;100.00;102006.16;6149472;29;20426;-77
2022/10/03 01:37:52;;;;;;;6.03;0.80;;;;;;;9.89;100.00;102014.03;6149596;29;20058;-76
2022/10/03 01:40:59;;;;;;;3.83;0.88;;;;;;;9.91;100.00;102006.97;6148997;28;20059;-77
2022/10/03 01:44:12;;;;;;;11.20;1.35;;;;;;;9.88;100.00;102012.31;6149111;29;20051;-77
2022/10/03 01:47:24;;;;;;;5.30;1.25;;;;;;;9.88;100.00;102021.03;6149435;29;20404;-77
2022/10/03 01:50:31;;;;;;;4.57;1.27;;;;;;;9.85;100.00;102025.53;6149173;29;20051;-77
2022/10/03 01:53:48;;;;;;;2.92;0.80;;;;;;;9.89;100.00;102028.00;6149630;28;20051;-76
2022/10/03 01:56:57;;;;;;;4.57;0.65;;;;;;;9.84;100.00;102031.69;6150926;28;20750;-77
2022/10/03 02:00:05;;;;;;;4.75;1.20;;;;;;;9.89;100.00;102030.63;6154036;29;20471;-77
2022/10/03 02:03:16;;;;;;;7.65;1.00;;;;;;;9.84;100.00;102037.78;6154275;28;20043;-77
2022/10/03 02:06:30;;;;;;;7.53;1.30;;;;;;;9.90;100.00;102042.88;6153859;29;20499;-77
2022/10/03 02:09:41;;;;;;;3.92;0.90;;;;;;;9.96;100.00;102035.72;6154462;29;20138;-77
2022/10/03 02:12:53;;;;;;;1.48;0.70;;;;;;;9.95;100.00;102037.50;6153946;28;20051;-77
2022/10/03 02:16:04;;;;;;;7.43;1.60;;;;;;;9.98;100.00;102037.38;6153943;29;20055;-77
2022/10/03 02:19:18;;;;;;;8.70;0.93;;;;;;;9.97;100.00;102042.69;6153888;29;20499;-77
2022/10/03 02:22:31;;;;;;;4.22;0.90;;;;;;;9.85;100.00;102044.75;6153444;28;20130;-77
2022/10/03 02:25:51;;;;;;;7.72;1.40;;;;;;;9.83;100.00;102043.09;6153495;29;20056;-77
2022/10/03 02:29:17;;;;;;;2.78;1.05;;;;;;;9.75;100.00;102051.19;6153704;29;20389;-77
2022/10/03 02:32:46;;;;;;;5.75;1.10;;;;;;;9.74;100.00;102061.75;6153310;28;20043;-77
2022/10/03 02:36:15;;;;;;;5.22;1.20;;;;;;;9.75;100.00;102064.31;6149958;28;20426;-77
2022/10/03 02:39:39;;;;;;;8.38;1.02;;;;;;;9.75;100.00;102063.47;6153197;29;20110;-77
2022/10/03 02:43:14;;;;;;;6.95;0.70;;;;;;;9.73;100.00;102066.13;6153421;28;20048;-77
2022/10/03 02:47:01;;;;;;;3.30;0.77;;;;;;;9.73;100.00;102068.75;6152746;29;20055;-74
2022/10/03 02:50:32;;;;;;;1.83;0.98;;;;;;;9.73;100.00;102078.41;6138510;29;20054;-75
2022/10/03 02:53:56;;;;;;;3.28;0.65;;;;;;;9.65;100.00;102076.84;6153114;28;20054;-76
2022/10/03 02:57:19;;;;;;;5.72;1.13;;;;;;;9.76;100.00;102086.19;6153228;29;20055;-76
2022/10/03 03:00:22;;;;;;;2.97;0.80;;;;;;;9.75;100.00;102081.84;6153094;29;20051;-76
2022/10/03 03:03:52;;;;;;;10.52;1.10;;;;;;;9.68;100.00;102088.19;6152443;29;20062;-76
2022/10/03 03:07:02;;;;;;;4.85;1.60;;;;;;;9.77;100.00;102094.03;6153031;29;20193;-76
2022/10/03 03:10:45;;;;;;;4.35;1.10;;;;;;;9.84;100.00;102086.81;6151069;29;20495;-77
2022/10/03 03:14:20;;;;;;;3.63;0.90;;;;;;;9.81;100.00;102086.91;6088765;29;20058;-76
2022/10/03 03:17:32;;;;;;;8.82;1.30;;;;;;;9.75;100.00;102100.22;6152908;29;20055;-76
2022/10/03 03:20:54;;;;;;;5.70;1.20;;;;;;;9.80;100.00;102104.41;6152338;29;20142;-76
2022/10/03 03:24:21;;;;;;;4.63;1.00;;;;;;;9.79;100.00;102112.34;6152130;29;20499;-76
2022/10/03 03:27:36;;;;;;;6.28;1.23;;;;;;;9.77;100.00;102108.91;6149498;29;20047;-76
2022/10/03 03:30:43;;;;;;;3.25;0.90;;;;;;;9.79;100.00;102107.97;6151979;29;20059;-76
2022/10/03 03:33:57;;;;;;;4.15;0.98;;;;;;;9.82;100.00;102104.41;6151950;28;20507;-76
2022/10/03 03:37:07;;;;;;;3.05;1.05;;;;;;;9.87;100.00;102111.22;6152325;29;20051;-76
2022/10/03 03:40:28;;;;;;;4.53;0.95;;;;;;;9.89;100.00;102108.56;6152197;29;20099;-76
2022/10/03 03:43:49;;;;;;;5.18;1.08;;;;;;;9.94;100.00;102109.28;6152104;28;20154;-76
2022/10/03 03:47:13;;;;;;;5.03;1.35;;;;;;;9.95;100.00;102115.38;6152085;29;20550;-76
2022/10/03 03:50:30;;;;;;;2.63;1.10;;;;;;;9.96;100.00;102114.50;6151648;29;20083;-76
2022/10/03 03:53:55;;;;;;;3.03;0.80;;;;;;;9.97;100.00;102106.56;6151986;28;20047;-76
2022/10/03 03:57:14;;;;;;;3.83;1.00;;;;;;;9.95;100.00;102100.53;6152104;29;20055;-77
2022/10/03 04:00:20;;;;;;;5.60;1.60;;;;;;;9.87;100.00;102102.50;6151426;29;20051;-76
2022/10/03 04:03:34;;;;;;;2.72;1.20;;;;;;;9.84;100.00;102107.81;6151420;28;20313;-77
2022/10/03 04:06:53;;;;;;;7.70;1.17;;;;;;;9.77;100.00;102109.78;6151327;29;20047;-76
2022/10/03 04:10:13;;;;;;;1.25;0.98;;;;;;;9.72;100.00;102118.66;6151391;29;20176;-76
2022/10/03 04:13:46;;;;;;;6.70;1.10;;;;;;;9.72;100.00;102108.16;6151480;28;20507;-76
2022/10/03 04:20:39;;;;;;;13.43;1.23;;;;;;;9.68;100.00;102112.66;6150819;28;20055;-76
2022/10/03 04:24:03;;;;;;;16.00;3.15;;;;;;;9.61;100.00;102125.06;6151344;28;20052;-75
2022/10/03 04:27:23;;;;;;;2.92;1.75;;;;;;;9.65;100.00;102115.38;6151243;29;20058;-76
2022/10/03 04:30:37;;;;;;;3.25;1.10;;;;;;;9.70;100.00;102120.47;6150956;29;20522;-76
2022/10/03 04:33:53;;;;;;;2.33;0.90;;;;;;;9.69;100.00;102121.41;6150831;28;20492;-76
2022/10/03 04:37:23;;;;;;;4.70;2.38;;;;;;;9.73;100.00;102121.28;6151155;29;20059;-76
2022/10/03 04:40:28;;;;;;;;;;;;;;;9.70;100.00;102134.47;6151165;29;20051;-76
2022/10/03 04:43:42;;;;;;;3.80;1.23;;;;;;;9.71;100.00;102125.69;6150558;28;19929;-76
2022/10/03 04:46:52;;;;;;;10.60;1.20;;;;;;;9.70;100.00;102129.22;6150725;29;20534;-76
2022/10/03 04:50:01;;;;;;;9.15;1.00;;;;;;;9.69;100.00;102142.41;6150355;29;20047;-75
2022/10/03 04:53:19;;;;;;;1.38;0.88;;;;;;;9.70;100.00;102136.22;6150850;28;20048;-75
2022/10/03 04:56:38;;;;;;;1.13;0.60;;;;;;;9.70;100.00;102136.22;6150176;29;20062;-75
2022/10/03 04:59:48;;;;;;;7.03;2.13;;;;;;;9.71;100.00;102132.69;6150586;29;20051;-75
2022/10/03 05:02:58;;;;;;;1.85;1.05;;;;;;;9.68;100.00;102135.44;6150060;28;20047;-75
2022/10/03 05:06:09;;;;;;;4.45;1.50;;;;;;;9.65;100.00;102128.47;6150165;29;20047;-75
2022/10/03 05:09:23;;;;;;;9.15;1.45;;;;;;;9.60;100.00;102138.25;6150150;29;20059;-75
2022/10/03 05:12:36;;;;;;;8.40;1.55;;;;;;;9.65;100.00;102149.47;6150191;28;20250;-75
2022/10/03 05:15:51;;;;;;;3.03;0.93;;;;;;;9.63;100.00;102148.69;6149661;29;20707;-77
2022/10/03 05:19:05;;;;;;;5.97;1.13;;;;;;;9.59;100.00;102147.03;6150190;29;20047;-75
2022/10/03 05:22:21;;;;;;;14.68;1.42;;;;;;;9.63;100.00;102154.78;6149865;28;20105;-75
2022/10/03 05:25:29;;;;;;;2.80;0.85;;;;;;;9.58;100.00;102159.31;6125775;29;20051;-75
2022/10/03 05:28:39;;;;;;;3.88;0.80;;;;;;;9.68;100.00;102154.66;6126526;29;20052;-75
2022/10/03 05:31:49;;;;;;;5.35;1.15;;;;;;;9.71;100.00;102161.56;6125125;29;20055;-76
2022/10/03 05:35:18;;;;;;;5.85;1.85;;;;;;;9.66;100.00;102157.31;6125841;29;20063;-75
2022/10/03 05:38:43;;;;;;;1.35;1.08;;;;;;;9.71;100.00;102164.19;6126002;29;20527;-76
2022/10/03 05:41:53;;;;;;;4.97;1.05;;;;;;;9.73;100.00;102165.88;6125728;29;20082;-76
2022/10/03 05:45:00;;;;;;;;;;;;;;;9.79;100.00;102168.34;6126350;29;20067;-76
2022/10/03 05:48:14;;;;;;;5.45;1.08;;;;;;;9.79;100.00;102173.59;6125987;29;19930;-76
2022/10/03 05:51:46;;;;;;;4.82;1.15;;;;;;;9.79;100.00;102176.22;6125495;29;20055;-76
2022/10/03 05:55:05;;;;;;;2.20;1.17;;;;;;;9.83;100.00;102177.00;6125390;29;20428;-77
2022/10/03 05:58:33;;;;;;;4.60;0.90;;;;;;;9.84;100.00;102184.81;6125917;29;20448;-76
2022/10/03 06:01:58;;;;;;;3.67;0.93;;;;;;;9.87;100.00;102186.53;6125093;29;20550;-75
2022/10/03 06:05:15;;;;;;;1.80;0.50;;;;;;;9.88;100.00;102193.50;6123090;29;20054;-75
2022/10/03 06:08:49;;;;;;;3.60;0.75;;;;;;;9.91;100.00;102186.41;6125976;29;20043;-75
2022/10/03 06:12:03;;;;;;;6.13;1.63;;;;;;;9.99;100.00;102198.44;6125158;29;20051;-75
2022/10/03 06:15:33;;;;;;;2.85;0.85;;;;;;;9.97;100.00;102192.38;6125361;29;20052;-75
2022/10/03 06:19:06;;;;;;;10.15;1.20;;;;;;;10.01;100.00;102192.25;6123233;29;20171;-75
2022/10/03 06:22:39;;;;;;;3.65;1.33;;;;;;;10.02;100.00;102191.34;6125060;29;20054;-75
2022/10/03 06:26:25;;;;;;;2.78;0.75;;;;;;;10.04;100.00;102192.19;6130985;29;20051;-75
2022/10/03 06:30:02;;;;;;;5.38;0.98;;;;;;;10.01;100.00;102194.03;6149213;29;20061;-75
2022/10/03 06:33:34;;;;;;;10.88;1.58;;;;;;;10.01;100.00;102200.13;6149254;28;20676;-76
2022/10/03 06:36:51;;;;;;;6.95;1.02;;;;;;;10.03;100.00;102192.19;6148692;29;20052;-74
2022/10/03 06:40:27;;;;;;;3.30;0.75;;;;;;;10.03;100.00;102203.56;6148156;28;20105;-75
2022/10/03 06:44:00;;;;;;;5.25;0.90;;;;;;;10.01;100.00;102201.91;6150155;28;20043;-76
2022/10/03 06:47:18;;;;;;;3.03;1.05;;;;;;;9.99;100.00;102207.22;6148876;29;20047;-75
2022/10/03 06:50:38;;;;;;;5.75;0.90;;;;;;;10.02;100.00;102214.97;6152218;29;20051;-74
2022/10/03 06:54:05;;;;;;;5.55;1.35;;;;;;;10.01;100.00;102215.03;6153512;29;20060;-75
2022/10/03 06:57:27;;;;;;;7.95;1.67;;;;;;;10.01;100.00;102221.13;6153151;29;20062;-74
2022/10/03 07:00:45;;;;;;;8.23;1.17;;;;;;;10.04;100.00;102223.69;6152897;29;20058;-76
2022/10/03 07:04:16;;;;;;;3.83;0.90;;;;;;;10.06;100.00;102215.75;6152219;29;20522;-76
2022/10/03 07:07:51;;;;;;;3.50;0.90;;;;;;;10.09;100.00;102220.94;6149301;28;20058;-74
2022/10/03 07:11:15;;;;;;;2.70;0.85;;;;;;;10.13;100.00;102220.81;6152607;29;20054;-76
2022/10/03 07:14:47;;;;;;;3.92;0.90;;;;;;;10.18;100.00;102225.09;6152309;29;20050;-76
2022/10/03 07:18:01;;;;;;;9.27;1.02;;;;;;;10.24;100.00;102228.41;6152760;28;20620;-76
2022/10/03 07:21:33;;;;;;;7.60;1.17;;;;;;;10.31;100.00;102227.34;6152240;28;20507;-76
2022/10/03 07:25:07;;;;;;;3.15;0.80;;;;;;;10.37;100.00;102221.06;6152037;29;20055;-76
2022/10/03 07:28:37;;;;;;;3.22;0.90;;;;;;;10.44;100.00;102227.84;6152586;29;20059;-76
2022/10/03 07:31:57;;;;;;;11.30;1.33;;;;;;;10.48;100.00;102228.63;6152200;28;20055;-77
2022/10/03 07:35:19;;;;;;;6.28;1.05;;;;;;;10.55;100.00;102235.44;6152047;29;20043;-76
2022/10/03 07:39:05;;;;;;;6.18;1.05;;;;;;;10.61;100.00;102240.50;6152447;29;20051;-76
2022/10/03 07:42:24;;;;;;;4.53;0.75;;;;;;;10.70;100.00;102240.22;6116779;28;20055;-76
2022/10/03 07:45:34;;;;;;;2.75;0.88;;;;;;;10.74;100.00;102246.25;6151947;29;20103;-72
2022/10/03 07:49:00;;;;;;;1.63;0.50;;;;;;;10.84;100.00;102245.06;6153164;29;20431;-76
2022/10/03 07:52:30;;;;;;;6.22;0.85;;;;;;;10.90;100.00;102252.75;6151847;28;20055;-76
2022/10/03 07:55:51;;;;;;;6.00;1.00;;;;;;;10.95;100.00;102256.13;6150980;28;20051;-76
2022/10/03 07:59:08;;;;;;;2.38;0.93;;;;;;;11.01;100.00;102248.03;6151836;29;20077;-76
2022/10/03 08:02:33;;;;;;;7.57;1.05;;;;;;;11.08;100.00;102254.84;6151113;28;20058;-76
2022/10/03 08:05:46;;;;;;;5.30;1.45;;;;;;;11.14;100.00;102259.91;6151338;29;20059;-77
2022/10/03 08:09:21;;;;;;;7.50;1.48;;;;;;;11.26;100.00;102261.28;6151938;29;20188;-76
2022/10/03 08:12:56;;;;;;;2.95;0.70;;;;;;;11.32;100.00;102258.47;6151065;28;20054;-77
2022/10/03 08:16:16;;;;;;;7.63;0.57;;;;;;;11.53;100.00;102267.41;6151470;29;20058;-77
2022/10/03 08:19:45;;;;;;;4.65;1.10;;;;;;;11.57;100.00;102266.41;6151664;29;20054;-76
2022/10/03 08:23:02;;;;;;;1.97;0.77;;;;;;;11.68;100.00;102260.81;6115363;28;20059;-76
2022/10/03 08:26:17;;;;;;;4.28;0.70;;;;;;;11.76;100.00;102265.78;6151102;29;20058;-75
2022/10/03 08:29:59;;;;;;;3.58;0.70;;;;;;;11.87;100.00;102266.34;6151069;29;20051;-76
2022/10/03 08:33:27;;;;;;;4.20;0.93;;;;;;;11.89;100.00;102269.75;6149518;28;20130;-76
2022/10/03 08:37:02;;;;;;;4.53;0.93;;;;;;;12.04;100.00;102285.06;6149076;29;20159;-75
2022/10/03 08:40:55;;;;;;;4.93;0.77;;;;;;;12.19;100.00;102278.38;6141694;28;20073;-76
2022/10/03 08:44:39;;;;;;;7.32;0.80;;;;;;;12.46;100.00;102279.16;6147251;29;20043;-75
2022/10/03 08:48:26;;;;;;;9.75;0.68;;;;;;;12.63;100.00;102289.97;6133628;28;20718;-76
2022/10/03 08:51:52;;;;;;;4.35;1.05;;;;;;;12.66;100.00;102295.09;6150780;28;20070;-76
2022/10/03 08:55:11;;;;;;;6.40;1.08;;;;;;;12.67;100.00;102288.94;6149181;28;20054;-77
2022/10/03 08:58:54;;;;;;;4.05;0.90;;;;;;;12.67;100.00;102293.31;6151874;28;20519;-77
2022/10/03 09:02:26;;;;;;;9.27;1.30;;;;;;;12.70;100.00;102282.66;6126557;29;20055;-78
2022/10/03 09:05:55;;;;;;;7.38;1.63;;;;;;;12.72;100.00;102288.75;6143270;28;20043;-79
2022/10/03 09:09:17;;;;;;;4.73;0.53;;;;;;;12.84;100.00;102290.91;6144840;28;20055;-78
2022/10/03 09:12:41;;;;;;;9.13;0.90;;;;;;;13.16;100.00;102289.66;6150016;28;20055;-78
2022/10/03 09:16:19;;;;;;;6.05;0.57;;;;;;;13.28;100.00;102287.50;6149700;29;20199;-79
2022/10/03 09:19:43;;;;;;;5.60;1.33;;;;;;;13.17;100.00;102290.53;6145352;28;20067;-78
2022/10/03 09:23:20;;;;;;;1.85;0.52;;;;;;;13.10;100.00;102279.34;6140235;28;20130;-78
2022/10/03 09:27:02;;;;;;;4.80;0.57;;;;;;;13.22;100.00;102285.97;6163743;28;20517;-78
2022/10/03 09:30:21;;;;;;;8.95;1.42;;;;;;;13.29;100.00;102278.66;6172673;28;20789;-78
2022/10/03 09:33:44;;;;;;;;;;;;;;;13.40;100.00;102268.53;6170966;28;20055;-78
2022/10/03 09:37:15;;;;;;;1.10;0.73;;;;;;;13.63;100.00;102276.38;6173108;28;19922;-79
2022/10/03 09:40:59;;;;;;;4.70;0.75;;;;;;;13.66;100.00;102278.00;6172653;28;20055;-79
2022/10/03 09:44:33;;;;;;;3.00;0.80;;;;;;;13.76;100.00;102276.69;6173093;28;20423;-80
2022/10/03 09:48:00;;;;;;;6.43;0.60;;;;;;;13.76;100.00;102274.03;6172423;28;20047;-81
2022/10/03 09:51:15;;;;;;;9.63;1.10;;;;;;;13.99;100.00;102275.75;6171693;28;20054;-79
2022/10/03 09:54:48;;;;;;;4.05;0.60;;;;;;;13.93;100.00;102275.97;6171410;28;20057;-79
2022/10/03 09:58:22;;;;;;;2.38;0.40;;;;;;;14.02;100.00;102280.88;6174687;28;20140;-79
2022/10/03 10:01:34;;;;;;;1.15;0.35;;;;;;;14.06;100.00;102271.88;6163803;28;20050;-79
2022/10/03 10:04:59;;;;;;;7.28;0.70;;;;;;;14.12;100.00;102270.75;6178443;28;20050;-79
2022/10/03 10:08:15;;;;;;;1.02;0.68;;;;;;;14.39;100.00;102284.53;6180545;28;20061;-80
2022/10/03 10:11:29;;;;;;;2.83;0.70;;;;;;;14.37;100.00;102279.34;6182590;28;20051;-80
2022/10/03 10:15:03;;;;;;;6.78;1.15;;;;;;;14.53;100.00;102283.94;6174481;28;20446;-80
2022/10/03 10:18:40;;;;;;;2.28;0.70;;;;;;;14.62;100.00;102278.25;6190589;28;20050;-79
2022/10/03 10:22:16;;;;;;;3.90;1.55;;;;;;;14.53;100.00;102283.94;6197903;28;20188;-80
2022/10/03 10:25:31;;;;;;;5.72;0.85;;;;;;;14.53;100.00;102279.50;6142618;28;20047;-80
2022/10/03 10:29:07;;;;;;;6.88;0.88;;;;;;;14.42;100.00;102276.47;6178725;28;20062;-79
2022/10/03 10:32:48;;;;;;;6.68;0.60;;;;;;;14.40;100.00;102270.41;6193750;28;20054;-77
2022/10/03 10:36:31;;;;;;;4.18;0.75;;;;;;;14.51;100.00;102267.31;6182768;28;20054;-78
2022/10/03 10:40:15;;;;;;;0.30;0.25;;;;;;;14.79;97.66;102262.44;6195384;28;20061;-78
2022/10/03 10:43:58;;;;;;;2.55;0.85;;;;;;;14.90;96.77;102264.63;6198745;28;20078;-78
2022/10/03 10:47:38;;;;;;;4.22;0.75;;;;;;;15.04;99.60;102266.59;6197040;28;20703;-77
2022/10/03 10:51:22;;;;;;;4.85;0.40;;;;;;;15.08;98.92;102269.03;6141821;28;20057;-77
2022/10/03 10:54:51;;;;;;;2.72;0.60;;;;;;;15.07;100.00;102272.59;6183356;28;20042;-77
2022/10/03 10:58:23;;;;;;;3.92;1.05;;;;;;;14.95;95.77;102266.09;6184036;28;20054;-76
2022/10/03 11:01:59;;;;;;;3.78;0.63;;;;;;;14.85;99.38;102263.94;6151250;28;20055;-76
2022/10/03 11:05:37;;;;;;;4.32;1.02;;;;;;;14.92;100.00;102252.16;6179848;28;20047;-76
2022/10/03 11:09:09;;;;;;;3.63;0.57;;;;;;;15.13;97.94;102253.78;6180956;28;20134;-77
2022/10/03 11:13:01;;;;;;;2.13;0.57;;;;;;;15.11;99.47;102260.91;6189753;28;20065;-76
2022/10/03 11:16:45;;;;;;;2.83;0.43;;;;;;;14.98;98.99;102263.28;6114176;28;20138;-76
2022/10/03 11:20:14;;;;;;;5.32;0.60;;;;;;;15.09;99.87;102268.09;6179440;28;20061;-76
2022/10/03 11:24:12;;;;;;;1.17;0.50;;;;;;;15.31;93.95;102259.13;6153803;28;20058;-76
2022/10/03 11:27:48;;;;;;;3.20;0.75;;;;;;;15.29;94.97;102261.81;6056037;29;20045;-76
2022/10/03 11:31:29;;;;;;;0.32;0.30;;;;;;;15.47;91.62;102260.06;6182260;28;20054;-78
2022/10/03 11:35:00;;;;;;;3.17;0.50;;;;;;;15.38;93.54;102244.63;6183218;28;20126;-76
2022/10/03 11:38:09;;;;;;;3.80;0.98;;;;;;;15.29;95.20;102253.88;6186883;28;20046;-76
2022/10/03 11:41:21;;;;;;;0.63;0.30;;;;;;;15.39;92.48;102254.28;6186168;28;20054;-77
2022/10/03 11:44:29;;;;;;;1.60;0.68;;;;;;;15.34;88.47;102257.16;6187888;28;20043;-76
2022/10/03 11:47:53;;;;;;;3.38;0.70;;;;;;;15.34;89.22;102259.78;6172741;28;20062;-78
2022/10/03 11:50:58;;;;;;;0.50;0.22;;;;;;;15.29;90.60;102253.88;6186700;28;20054;-75
2022/10/03 11:54:06;;;;;;;2.45;0.80;;;;;;;15.29;92.49;102259.16;6189572;28;20047;-78
2022/10/03 11:57:15;;;;;;;3.22;0.52;;;;;;;15.40;91.40;102250.72;6200653;28;20054;-77
2022/10/03 12:00:20;;;;;;;1.60;0.40;;;;;;;15.43;92.77;102247.91;6193628;28;20062;-76
2022/10/03 12:03:26;;;;;;;0.30;0.30;;;;;;;15.59;92.06;102248.00;6216052;23;20283;-76
2022/10/03 12:10:20;;;;;;;0.40;0.30;;;;;;;15.52;87.00;102241.28;6168585;28;20074;-73
2022/10/03 12:13:31;;;;;;;2.20;0.57;;;;;;;15.47;91.35;102247.66;6163460;28;20062;-76
2022/10/03 12:16:46;;;;;;;1.67;0.40;;;;;;;16.01;87.34;102252.06;6129726;29;20055;-73
2022/10/03 12:19:58;;;;;;;1.95;1.10;;;;;;;16.50;81.45;102239.69;6132468;29;20047;-74
2022/10/03 12:23:13;;;;;;;2.35;0.50;;;;;;;16.48;82.33;102238.91;6127289;29;20052;-74
2022/10/03 12:26:18;;;;;;;1.20;0.52;;;;;;;16.14;82.01;102247.84;6126863;29;20438;-74
2022/10/03 12:29:24;;;;;;;1.73;0.43;;;;;;;15.92;84.55;102254.25;6127295;29;20059;-77
2022/10/03 12:32:37;;;;;;;1.27;0.38;;;;;;;15.81;85.16;102253.09;6127127;29;20431;-77
2022/10/03 12:35:49;;;;;;;2.80;0.60;;;;;;;15.59;86.33;102246.19;6127066;29;20051;-76
2022/10/03 12:38:58;;;;;;;1.27;0.30;;;;;;;15.50;88.84;102246.66;6127241;29;20055;-74
2022/10/03 12:42:15;;;;;;;2.30;1.40;;;;;;;15.57;90.55;102257.81;6126755;29;20067;-74
2022/10/03 12:45:26;;;;;;;3.08;0.50;;;;;;;15.63;88.34;102237.16;6127093;29;20393;-74
2022/10/03 12:48:42;;;;;;;1.45;0.38;;;;;;;16.01;87.07;102233.50;6127225;29;20542;-73
2022/10/03 12:51:52;;;;;;;4.13;0.30;;;;;;;16.33;86.43;102245.91;6125903;29;20051;-74
2022/10/03 12:55:05;;;;;;;8.35;0.50;;;;;;;16.47;82.74;102234.56;6121031;29;20079;-73
2022/10/03 12:58:20;;;;;;;4.07;0.85;;;;;;;16.23;83.44;102236.75;6126238;29;20044;-73
2022/10/03 13:01:36;;;;;;;1.38;0.30;;;;;;;16.22;83.31;102232.38;6125301;29;20067;-71
2022/10/03 13:04:46;;;;;;;4.30;1.45;;;;;;;16.10;85.70;102235.66;6125609;29;20078;-73
2022/10/03 13:07:55;;;;;;;6.43;0.68;;;;;;;16.05;85.94;102240.38;6129463;29;20063;-73
2022/10/03 13:11:07;;;;;;;1.23;0.40;;;;;;;15.89;85.43;102235.84;6140860;29;20043;-73
2022/10/03 13:14:23;;;;;;;0.93;0.50;;;;;;;15.83;86.43;102232.66;6125376;29;20059;-73
2022/10/03 13:17:34;;;;;;;1.13;0.20;;;;;;;15.81;86.65;102237.19;6150026;29;20412;-73
2022/10/03 13:20:39;;;;;;;2.45;0.50;;;;;;;15.69;86.02;102233.38;6124852;29;20051;-71
2022/10/03 13:23:47;;;;;;;1.75;0.45;;;;;;;15.66;87.72;102239.66;6136223;28;20106;-71
2022/10/03 13:26:56;;;;;;;5.25;0.47;;;;;;;15.68;86.19;102240.47;6139463;29;20055;-72
2022/10/03 13:30:05;;;;;;;1.30;0.55;;;;;;;15.84;87.13;102234.38;6138370;29;20044;-73
2022/10/03 13:33:15;;;;;;;3.38;0.80;;;;;;;15.74;87.33;102239.28;6137979;29;20397;-72
2022/10/03 13:36:25;;;;;;;1.45;0.73;;;;;;;15.67;87.16;102238.75;6135955;29;20047;-72
2022/10/03 13:39:35;;;;;;;0.75;0.47;;;;;;;15.58;87.42;102230.34;6125114;29;20190;-73
2022/10/03 13:42:44;;;;;;;0.30;0.30;;;;;;;15.55;90.13;102234.03;6125320;29;20052;-72
2022/10/03 13:45:49;;;;;;;2.35;0.45;;;;;;;15.57;89.26;102229.50;6128097;29;20539;-71
2022/10/03 13:48:59;;;;;;;1.83;0.50;;;;;;;15.64;85.64;102224.81;6136241;29;20051;-71
2022/10/03 13:52:14;;;;;;;3.95;0.45;;;;;;;15.74;85.97;102228.69;6136849;29;20059;-71
2022/10/03 13:55:29;;;;;;;1.75;0.68;;;;;;;15.81;87.51;102224.81;6132092;29;20428;-73
2022/10/03 13:58:42;;;;;;;1.55;0.43;;;;;;;15.81;87.97;102224.81;6136772;29;20547;-73
2022/10/03 14:01:52;;;;;;;1.85;0.40;;;;;;;15.91;86.87;102215.44;6135854;29;20069;-74
2022/10/03 14:05:02;;;;;;;;;;;;;;;16.00;84.86;102207.94;6141751;28;20043;-74
2022/10/03 14:08:17;;;;;;;1.92;0.40;;;;;;;16.13;84.07;102207.19;6144322;29;19922;-73
2022/10/03 14:11:25;;;;;;;1.55;0.45;;;;;;;16.28;85.61;102207.31;6152138;29;20051;-74
2022/10/03 14:14:42;;;;;;;0.63;0.22;;;;;;;16.77;82.86;102208.16;6132343;29;20086;-74
2022/10/03 14:17:49;;;;;;;6.13;0.55;;;;;;;16.73;81.77;102202.16;6136325;29;20047;-74
2022/10/03 14:21:24;;;;;;;0.52;0.30;;;;;;;16.84;81.33;102204.19;6132709;29;20056;-74
2022/10/03 14:24:37;;;;;;;3.40;0.43;;;;;;;16.84;84.12;102208.66;6144232;29;20059;-74
2022/10/03 14:27:49;;;;;;;1.08;0.47;;;;;;;16.92;80.73;102196.66;6147793;29;20058;-73
2022/10/03 14:31:00;;;;;;;2.53;0.75;;;;;;;16.89;80.90;102193.31;6138578;28;20052;-72
2022/10/03 14:34:09;;;;;;;2.75;0.43;;;;;;;16.84;81.19;102195.38;6147153;28;20412;-72
2022/10/03 14:37:24;;;;;;;2.35;0.57;;;;;;;16.86;81.46;102202.34;6139544;28;20070;-72
2022/10/03 14:40:33;;;;;;;1.50;1.23;;;;;;;16.80;80.60;102188.53;6139633;28;20420;-74
2022/10/03 14:43:41;;;;;;;3.58;0.50;;;;;;;16.80;82.07;102192.03;6127942;29;20066;-72
2022/10/03 14:46:49;;;;;;;0.40;0.20;;;;;;;16.68;82.98;102192.72;6134978;29;20048;-72
2022/10/03 14:49:54;;;;;;;0.50;0.40;;;;;;;16.54;82.78;102193.47;6136312;29;20516;-73
2022/10/03 14:53:02;;;;;;;3.05;1.70;;;;;;;16.36;83.54;102186.53;6132472;29;20058;-72
2022/10/03 14:56:08;;;;;;;0.60;0.32;;;;;;;16.22;83.09;102192.59;6138353;29;20055;-71
2022/10/03 14:59:18;;;;;;;2.85;0.60;;;;;;;16.22;84.96;102190.78;6133704;29;20047;-72
2022/10/03 15:02:27;;;;;;;4.88;0.98;;;;;;;16.17;84.93;102189.34;6132468;29;20048;-71
2022/10/03 15:05:34;;;;;;;3.72;0.55;;;;;;;16.05;85.25;102193.47;6128804;29;20055;-71
2022/10/03 15:08:39;;;;;;;4.50;0.52;;;;;;;16.08;86.14;102185.38;6129348;29;20053;-71
2022/10/03 15:11:48;;;;;;;4.65;0.80;;;;;;;16.03;87.10;102194.50;6134361;29;20051;-70
2022/10/03 15:14:57;;;;;;;3.30;0.55;;;;;;;15.92;87.51;102198.56;6144761;28;20056;-70
2022/10/03 15:18:01;;;;;;;5.67;1.03;;;;;;;15.96;88.87;102196.63;6129017;29;20095;-71
2022/10/03 15:21:05;;;;;;;2.25;0.50;;;;;;;15.87;87.48;102199.75;6128782;29;20156;-70
2022/10/03 15:24:11;;;;;;;2.28;0.45;;;;;;;15.86;87.36;102198.06;6128512;29;20052;-70
2022/10/03 15:27:20;;;;;;;1.77;0.68;;;;;;;15.78;88.08;102187.84;6128808;29;20055;-70
2022/10/03 15:30:24;;;;;;;2.47;0.55;;;;;;;15.69;89.28;102193.63;6127922;29;20055;-71
2022/10/03 15:33:31;;;;;;;2.88;0.73;;;;;;;15.66;90.96;102193.75;6130393;29;20051;-71
2022/10/03 15:36:37;;;;;;;2.28;0.60;;;;;;;15.64;88.65;102195.66;6128426;29;20051;-70
2022/10/03 15:39:41;;;;;;;1.63;0.40;;;;;;;15.68;88.95;102189.25;6128407;29;20055;-70